createdAt,value
2023-01-01T00:02:08.959Z,8.90
2023-01-01T00:04:57.059Z,8.85
2023-01-01T00:07:45.048Z,8.79
2023-01-01T00:10:33.185Z,8.75
2023-01-01T00:13:21.451Z,8.68
2023-01-01T00:16:11.703Z,8.62
2023-01-01T00:19:01.274Z,8.57
2023-01-01T00:21:49.154Z,8.51
2023-01-01T00:24:37.391Z,8.44
2023-01-01T00:27:24.956Z,8.39
2023-01-01T00:30:16.224Z,8.34
2023-01-01T00:33:03.823Z,8.28
2023-01-01T00:35:52.890Z,8.23
2023-01-01T00:38:41.606Z,8.19
2023-01-01T00:41:29.815Z,8.15
2023-01-01T00:44:17.683Z,8.09
2023-01-01T00:47:05.593Z,8.05
2023-01-01T00:49:53.447Z,8.03
2023-01-01T00:52:42.926Z,8.00
2023-01-01T00:55:31.093Z,7.96
2023-01-01T00:58:20.330Z,7.91
2023-01-01T01:01:08.154Z,7.89
2023-01-01T01:03:55.982Z,7.85
2023-01-01T01:06:44.036Z,7.83
2023-01-01T01:09:33.635Z,7.88
2023-01-01T01:12:21.602Z,7.93
2023-01-01T01:15:10.682Z,7.95
2023-01-01T01:17:58.384Z,8.05
2023-01-01T01:20:52.590Z,8.34
2023-01-01T01:23:40.281Z,8.46
2023-01-01T01:26:32.610Z,8.60
2023-01-01T01:29:20.519Z,8.78
2023-01-01T01:32:08.418Z,8.79
2023-01-01T01:34:56.471Z,8.73
2023-01-01T01:37:44.377Z,8.74
2023-01-01T01:40:32.371Z,8.71
2023-01-01T01:43:25.935Z,8.73
2023-01-01T01:46:16.476Z,8.61
2023-01-01T01:53:27.600Z,8.35
2023-01-01T01:56:20.845Z,8.38
2023-01-01T01:59:10.941Z,8.46
2023-01-01T02:02:01.134Z,8.45
2023-01-01T02:05:14.403Z,8.49
2023-01-01T02:08:06.168Z,8.46
2023-01-01T02:10:53.968Z,8.39
2023-01-01T02:13:42.766Z,8.53
2023-01-01T02:16:38.818Z,8.72
2023-01-01T02:19:34.396Z,8.78
2023-01-01T02:23:53.204Z,8.79
2023-01-01T02:26:57.038Z,8.60
2023-01-01T02:29:49.928Z,8.45
2023-01-01T02:32:43.053Z,8.34
2023-01-01T02:35:38.922Z,8.22
2023-01-01T02:38:53.989Z,8.11
2023-01-01T02:41:45.331Z,8.03
2023-01-01T02:44:58.899Z,7.93
2023-01-01T02:47:50.861Z,7.89
2023-01-01T02:50:38.809Z,7.84
2023-01-01T02:53:33.111Z,7.76
2023-01-01T02:56:31.109Z,7.69
2023-01-01T02:59:46.658Z,7.62
2023-01-01T03:02:46.630Z,7.59
2023-01-01T03:09:20.144Z,7.50
2023-01-01T03:12:16.205Z,7.43
2023-01-01T03:15:13.788Z,7.39
2023-01-01T03:18:25.926Z,7.30
2023-01-01T03:24:06.631Z,7.19
2023-01-01T03:26:58.160Z,7.12
2023-01-01T03:29:48.903Z,7.07
2023-01-01T03:33:00.147Z,7.03
2023-01-01T03:35:53.293Z,7.02
2023-01-01T03:38:48.090Z,6.98
2023-01-01T03:41:41.474Z,7.00
2023-01-01T03:44:33.216Z,7.02
2023-01-01T03:47:21.528Z,7.05
2023-01-01T03:50:10.511Z,6.99
2023-01-01T03:53:09.121Z,6.95
2023-01-01T03:56:09.022Z,6.86
2023-01-01T03:59:05.812Z,6.77
2023-01-01T04:01:58.670Z,6.74
2023-01-01T04:04:47.535Z,6.71
2023-01-01T04:07:36.129Z,6.63
2023-01-01T04:10:25.373Z,6.58
2023-01-01T04:13:14.426Z,6.53
2023-01-01T04:16:02.674Z,6.49
2023-01-01T04:18:50.380Z,6.44
2023-01-01T04:21:38.420Z,6.40
2023-01-01T04:24:26.166Z,6.34
2023-01-01T04:27:14.220Z,6.29
2023-01-01T04:30:06.112Z,6.24
2023-01-01T04:32:53.808Z,6.20
2023-01-01T04:35:43.221Z,6.15
2023-01-01T04:38:31.014Z,6.12
2023-01-01T04:41:19.030Z,6.07
2023-01-01T04:44:07.265Z,5.98
2023-01-01T04:47:00.131Z,5.97
2023-01-01T04:49:48.344Z,6.02
2023-01-01T04:52:36.172Z,6.07
2023-01-01T04:55:24.087Z,6.14
2023-01-01T04:58:12.353Z,6.10
2023-01-01T05:01:00.141Z,6.11
2023-01-01T05:03:50.202Z,6.06
2023-01-01T05:06:39.588Z,6.15
2023-01-01T05:09:27.487Z,6.21
2023-01-01T05:12:15.498Z,6.55
2023-01-01T05:15:03.406Z,6.39
2023-01-01T05:17:51.353Z,6.27
2023-01-01T05:20:40.712Z,6.20
2023-01-01T05:23:28.685Z,6.16
2023-01-01T05:26:27.187Z,6.09
2023-01-01T05:29:17.135Z,6.05
2023-01-01T05:32:05.785Z,6.00
2023-01-01T05:34:54.257Z,5.93
2023-01-01T05:37:43.436Z,5.88
2023-01-01T05:40:31.401Z,5.82
2023-01-01T05:43:21.989Z,5.77
2023-01-01T05:46:13.147Z,5.76
2023-01-01T05:49:01.034Z,5.72
2023-01-01T05:51:48.786Z,5.69
2023-01-01T05:54:37.855Z,5.70
2023-01-01T05:57:25.716Z,5.66
2023-01-01T06:00:14.996Z,5.67
2023-01-01T06:03:05.669Z,5.62
2023-01-01T06:05:53.370Z,5.61
2023-01-01T06:08:41.841Z,5.63
2023-01-01T06:11:32.098Z,5.68
2023-01-01T06:14:19.861Z,5.64
2023-01-01T06:17:08.055Z,5.59
2023-01-01T06:19:55.848Z,5.53
2023-01-01T06:22:43.664Z,5.54
2023-01-01T06:25:31.577Z,5.51
2023-01-01T06:28:21.093Z,5.55
2023-01-01T06:31:11.318Z,5.60
2023-01-01T06:33:59.461Z,5.56
2023-01-01T06:36:47.433Z,5.51
2023-01-01T06:39:35.501Z,5.43
2023-01-01T06:42:23.566Z,5.38
2023-01-01T06:45:14.325Z,5.33
2023-01-01T06:48:03.077Z,5.31
2023-01-01T06:50:53.275Z,5.26
2023-01-01T06:53:41.321Z,5.22
2023-01-01T06:56:29.710Z,5.44
2023-01-01T06:59:18.010Z,5.40
2023-01-01T07:02:07.263Z,5.64
2023-01-01T07:05:04.468Z,5.62
2023-01-01T07:07:52.473Z,5.58
2023-01-01T07:10:40.382Z,5.60
2023-01-01T07:13:29.624Z,5.56
2023-01-01T07:16:17.429Z,5.57
2023-01-01T07:19:14.455Z,5.62
2023-01-01T07:22:16.207Z,5.70
2023-01-01T07:32:25.839Z,6.31
2023-01-01T07:35:17.076Z,6.43
2023-01-01T07:38:05.179Z,6.58
2023-01-01T07:40:53.169Z,6.72
2023-01-01T07:43:41.103Z,6.95
2023-01-01T07:46:30.129Z,6.98
2023-01-01T07:49:18.152Z,7.12
2023-01-01T07:52:07.490Z,7.13
2023-01-01T07:54:55.521Z,7.31
2023-01-01T07:57:43.515Z,7.38
2023-01-01T08:00:31.481Z,7.50
2023-01-01T08:03:19.633Z,7.56
2023-01-01T08:06:09.759Z,7.57
2023-01-01T08:09:11.718Z,7.60
2023-01-01T08:11:59.664Z,7.66
2023-01-01T08:14:48.636Z,7.63
2023-01-01T08:17:40.963Z,7.59
2023-01-01T08:20:39.790Z,7.65
2023-01-01T08:23:39.897Z,7.80
2023-01-01T08:26:34.198Z,7.84
2023-01-01T08:29:22.450Z,8.04
2023-01-01T08:32:10.798Z,8.07
2023-01-01T08:35:08.532Z,8.10
2023-01-01T08:37:56.566Z,8.18
2023-01-01T08:40:44.413Z,8.30
2023-01-01T08:43:33.805Z,8.31
2023-01-01T08:46:24.614Z,8.37
2023-01-01T08:49:12.525Z,8.48
2023-01-01T08:52:01.840Z,8.53
2023-01-01T08:54:49.576Z,8.61
2023-01-01T08:57:37.395Z,8.65
2023-01-01T09:00:29.894Z,8.71
2023-01-01T09:03:17.667Z,8.68
2023-01-01T09:06:06.013Z,8.60
2023-01-01T09:09:40.949Z,8.56
2023-01-01T09:12:29.522Z,8.61
2023-01-01T09:15:18.139Z,8.66
2023-01-01T09:18:19.982Z,8.70
2023-01-01T09:21:42.273Z,8.73
2023-01-01T09:24:30.207Z,8.83
2023-01-01T09:27:18.269Z,8.83
2023-01-01T09:30:07.101Z,9.27
2023-01-01T09:35:56.875Z,9.82
2023-01-01T09:38:49.455Z,9.99
2023-01-01T09:42:02.247Z,10.16
2023-01-01T09:45:37.894Z,10.46
2023-01-01T09:48:27.880Z,10.91
2023-01-01T09:51:24.905Z,10.98
2023-01-01T09:57:20.068Z,11.09
2023-01-01T10:00:16.556Z,10.97
2023-01-01T10:02:56.290Z,10.97
2023-01-01T10:05:55.011Z,10.94
2023-01-01T10:09:08.788Z,10.82
2023-01-01T10:12:45.262Z,10.88
2023-01-01T10:15:37.797Z,10.84
2023-01-01T10:18:30.251Z,10.85
2023-01-01T10:21:24.740Z,10.93
2023-01-01T10:24:35.041Z,10.93
2023-01-01T10:27:31.946Z,11.09
2023-01-01T10:30:24.040Z,11.11
2023-01-01T10:33:20.697Z,11.10
2023-01-01T10:36:11.776Z,11.06
2023-01-01T10:39:02.581Z,11.02
2023-01-01T10:41:52.536Z,11.04
2023-01-01T10:44:41.354Z,11.09
2023-01-01T10:47:30.879Z,11.10
2023-01-01T10:50:22.052Z,11.13
2023-01-01T10:53:21.846Z,11.15
2023-01-01T10:56:14.641Z,11.17
2023-01-01T10:59:05.740Z,11.20
2023-01-01T11:02:21.552Z,11.28
2023-01-01T11:05:21.533Z,11.30
2023-01-01T11:08:20.125Z,11.38
2023-01-01T11:11:21.028Z,11.37
2023-01-01T11:17:55.769Z,11.46
2023-01-01T11:20:44.489Z,11.45
2023-01-01T11:26:27.147Z,11.47
2023-01-01T11:29:27.042Z,11.47
2023-01-01T11:32:23.649Z,11.52
2023-01-01T11:35:20.178Z,11.61
2023-01-01T11:38:18.536Z,11.60
2023-01-01T11:41:08.157Z,11.75
2023-01-01T11:43:56.225Z,11.89
2023-01-01T11:46:48.227Z,12.08
2023-01-01T11:49:36.697Z,12.23
2023-01-01T11:52:38.018Z,12.37
2023-01-01T11:55:38.818Z,12.33
2023-01-01T11:58:31.988Z,12.30
2023-01-01T12:01:27.269Z,12.31
2023-01-01T12:04:22.723Z,12.28
2023-01-01T12:07:14.269Z,12.30
2023-01-01T12:10:07.689Z,12.33
2023-01-01T12:13:02.657Z,12.29
2023-01-01T12:15:56.909Z,12.34
2023-01-01T12:18:53.803Z,12.40
2023-01-01T12:21:54.750Z,12.44
2023-01-01T12:24:43.006Z,12.54
2023-01-01T12:27:47.111Z,12.60
2023-01-01T12:30:47.544Z,12.59
2023-01-01T12:33:59.760Z,12.62
2023-01-01T12:36:58.354Z,12.61
2023-01-01T12:40:25.030Z,12.64
2023-01-01T12:43:18.019Z,12.72
2023-01-01T12:46:16.658Z,12.86
2023-01-01T12:49:28.050Z,13.02
2023-01-01T12:52:32.589Z,13.09
2023-01-01T12:56:04.106Z,13.17
2023-01-01T12:58:58.177Z,13.26
2023-01-01T13:01:48.283Z,13.29
2023-01-01T13:04:39.424Z,13.30
2023-01-01T13:07:40.682Z,13.30
2023-01-01T13:10:31.553Z,13.30
2023-01-01T13:13:20.290Z,13.36
2023-01-01T13:16:10.958Z,13.42
2023-01-01T13:19:02.586Z,13.44
2023-01-01T13:21:50.739Z,13.47
2023-01-01T13:24:40.332Z,13.51
2023-01-01T13:28:03.412Z,13.53
2023-01-01T13:30:52.611Z,13.58
2023-01-01T13:33:40.294Z,13.62
2023-01-01T13:36:34.615Z,13.59
2023-01-01T13:39:54.192Z,13.64
2023-01-01T13:43:06.315Z,13.59
2023-01-01T13:46:13.349Z,13.56
2023-01-01T13:53:52.411Z,13.56
2023-01-01T13:56:51.768Z,13.59
2023-01-01T14:00:06.125Z,13.52
2023-01-01T14:02:59.424Z,13.53
2023-01-01T14:05:50.819Z,13.48
2023-01-01T14:08:44.725Z,13.43
2023-01-01T14:11:32.793Z,13.38
2023-01-01T14:14:28.250Z,13.35
2023-01-01T14:17:18.080Z,13.39
2023-01-01T14:23:41.147Z,13.39
2023-01-01T14:26:29.792Z,13.39
2023-01-01T14:29:24.877Z,13.35
2023-01-01T14:32:24.971Z,13.29
2023-01-01T14:35:26.931Z,13.28
2023-01-01T14:38:26.084Z,13.20
2023-01-01T14:41:20.084Z,13.13
2023-01-01T14:44:14.302Z,13.04
2023-01-01T14:47:06.504Z,13.00
2023-01-01T14:49:55.524Z,12.96
2023-01-01T14:52:45.091Z,12.88
2023-01-01T14:55:41.696Z,12.95
2023-01-01T14:58:31.362Z,12.91
2023-01-01T15:01:23.603Z,12.85
2023-01-01T15:04:24.274Z,12.78
2023-01-01T15:07:24.078Z,12.71
2023-01-01T15:10:14.612Z,12.66
2023-01-01T15:13:05.225Z,12.67
2023-01-01T15:15:54.890Z,12.59
2023-01-01T15:18:45.595Z,12.51
2023-01-01T15:21:41.270Z,12.41
2023-01-01T15:24:30.456Z,12.35
2023-01-01T15:27:26.058Z,12.23
2023-01-01T15:30:25.996Z,12.11
2023-01-01T15:33:18.855Z,12.08
2023-01-01T15:36:07.368Z,11.86
2023-01-01T15:38:57.296Z,11.82
2023-01-01T15:41:47.027Z,11.77
2023-01-01T15:44:38.420Z,11.71
2023-01-01T15:47:26.731Z,11.63
2023-01-01T15:50:23.161Z,11.56
2023-01-01T15:53:17.114Z,11.48
2023-01-01T15:56:11.474Z,11.39
2023-01-01T15:59:09.136Z,11.34
2023-01-01T16:02:14.587Z,11.26
2023-01-01T16:05:05.696Z,11.21
2023-01-01T16:11:18.531Z,11.11
2023-01-01T16:14:08.472Z,11.04
2023-01-01T16:17:00.807Z,10.99
2023-01-01T16:19:51.654Z,10.95
2023-01-01T16:22:39.412Z,10.90
2023-01-01T16:25:27.064Z,10.87
2023-01-01T16:28:16.881Z,10.82
2023-01-01T16:31:04.851Z,10.78
2023-01-01T16:33:55.869Z,10.73
2023-01-01T16:36:44.284Z,10.71
2023-01-01T16:39:33.532Z,10.69
2023-01-01T16:42:21.441Z,10.64
2023-01-01T16:45:20.893Z,10.60
2023-01-01T16:48:08.880Z,10.55
2023-01-01T16:50:56.685Z,10.52
2023-01-01T16:53:44.766Z,10.48
2023-01-01T16:56:32.794Z,10.44
2023-01-01T16:59:21.810Z,10.41
2023-01-01T17:02:12.736Z,10.38
2023-01-01T17:05:00.825Z,10.34
2023-01-01T17:07:48.893Z,10.29
2023-01-01T17:10:36.783Z,10.26
2023-01-01T17:13:24.744Z,10.21
2023-01-01T17:16:15.572Z,10.17
2023-01-01T17:19:16.632Z,10.11
2023-01-01T17:22:05.587Z,10.08
2023-01-01T17:24:53.454Z,10.04
2023-01-01T17:27:41.525Z,10.00
2023-01-01T17:30:29.590Z,9.96
2023-01-01T17:33:17.513Z,9.91
2023-01-01T17:36:08.161Z,9.87
2023-01-01T17:38:56.438Z,9.80
2023-01-01T17:41:45.535Z,9.75
2023-01-01T17:44:33.187Z,9.70
2023-01-01T17:47:21.106Z,9.63
2023-01-01T17:50:10.127Z,9.56
2023-01-01T17:52:59.464Z,9.49
2023-01-01T17:55:47.447Z,9.42
2023-01-01T17:58:37.102Z,9.33
2023-01-01T18:01:33.166Z,9.26
2023-01-01T18:04:21.220Z,9.16
2023-01-01T18:07:09.528Z,9.09
2023-01-01T18:09:58.539Z,9.02
2023-01-01T18:12:46.267Z,8.92
2023-01-01T18:15:38.187Z,8.83
2023-01-01T18:18:26.160Z,8.71
2023-01-01T18:21:19.274Z,8.68
2023-01-01T18:24:12.866Z,8.60
2023-01-01T18:27:04.639Z,8.58
2023-01-01T18:29:52.809Z,8.53
2023-01-01T18:32:40.552Z,8.46
2023-01-01T18:35:28.489Z,8.42
2023-01-01T18:38:21.336Z,8.45
2023-01-01T18:41:29.221Z,8.55
2023-01-01T18:44:22.507Z,8.59
2023-01-01T18:47:16.045Z,8.59
2023-01-01T18:50:15.243Z,8.59
2023-01-01T18:53:12.659Z,8.53
2023-01-01T18:56:10.013Z,8.50
2023-01-01T18:58:59.022Z,8.43
2023-01-01T19:06:41.881Z,8.36
2023-01-01T19:11:31.779Z,8.41
2023-01-01T19:25:51.623Z,8.26
2023-01-01T19:28:55.125Z,8.17
2023-01-01T19:32:20.624Z,8.08
2023-01-01T19:35:24.551Z,7.99
2023-01-01T19:38:12.337Z,7.91
2023-01-01T19:41:00.387Z,7.86
2023-01-01T19:43:49.943Z,7.80
2023-01-01T19:46:40.656Z,7.80
2023-01-01T19:49:29.445Z,7.76
2023-01-01T19:52:17.549Z,7.84
2023-01-01T19:55:07.403Z,7.83
2023-01-01T19:57:55.574Z,7.83
2023-01-01T20:00:45.254Z,8.03
2023-01-01T20:03:53.502Z,8.13
2023-01-01T20:06:41.708Z,7.95
2023-01-01T20:09:29.652Z,7.87
2023-01-01T20:12:17.652Z,7.91
2023-01-01T20:15:07.876Z,8.00
2023-01-01T20:17:57.354Z,7.84
2023-01-01T20:20:59.374Z,7.87
2023-01-01T20:23:47.193Z,8.00
2023-01-01T20:26:35.213Z,8.37
2023-01-01T20:29:23.529Z,8.39
2023-01-01T20:32:13.279Z,8.62
2023-01-01T20:35:13.763Z,8.62
2023-01-01T20:38:06.401Z,8.73
2023-01-01T20:40:54.160Z,8.72
2023-01-01T20:43:42.020Z,8.98
2023-01-01T20:46:30.300Z,9.06
2023-01-01T20:49:18.800Z,8.99
2023-01-01T20:52:08.091Z,9.00
2023-01-01T20:54:56.172Z,8.95
2023-01-01T20:57:43.799Z,8.79
2023-01-01T21:00:31.819Z,8.68
2023-01-01T21:03:19.868Z,8.67
2023-01-01T21:06:08.004Z,8.74
2023-01-01T21:08:57.079Z,8.61
2023-01-01T21:11:45.209Z,8.45
2023-01-01T21:14:33.744Z,8.37
2023-01-01T21:17:23.693Z,8.30
2023-01-01T21:20:13.131Z,8.23
2023-01-01T21:23:01.378Z,8.23
2023-01-01T21:25:52.584Z,8.26
2023-01-01T21:28:42.043Z,8.24
2023-01-01T21:31:43.622Z,8.23
2023-01-01T21:34:38.634Z,8.21
2023-01-01T21:37:46.022Z,8.18
2023-01-01T21:40:41.858Z,8.21
2023-01-01T21:43:39.749Z,8.19
2023-01-01T21:46:34.469Z,8.21
2023-01-01T21:49:30.238Z,8.28
2023-01-01T21:52:23.086Z,8.48
2023-01-01T21:55:20.008Z,8.54
2023-01-01T21:58:25.787Z,8.48
2023-01-01T22:01:25.677Z,8.57
2023-01-01T22:04:23.664Z,8.68
2023-01-01T22:07:56.967Z,8.82
2023-01-01T22:10:38.291Z,8.77
2023-01-01T22:13:26.654Z,8.84
2023-01-01T22:16:20.640Z,8.80
2023-01-01T22:19:21.788Z,8.77
2023-01-01T22:22:14.813Z,8.85
2023-01-01T22:25:24.347Z,8.78
2023-01-01T22:28:19.979Z,8.75
2023-01-01T22:31:09.594Z,8.64
2023-01-01T22:34:00.464Z,8.60
2023-01-01T22:36:48.949Z,8.51
2023-01-01T22:39:37.458Z,8.66
2023-01-01T22:42:25.517Z,8.67
2023-01-01T22:45:16.895Z,8.61
2023-01-01T22:48:07.883Z,8.52
2023-01-01T22:51:07.249Z,8.40
2023-01-01T22:53:55.233Z,8.37
2023-01-01T22:56:43.149Z,8.41
2023-01-01T22:59:31.127Z,8.48
2023-01-01T23:02:21.985Z,8.45
2023-01-01T23:05:10.404Z,8.40
2023-01-01T23:08:00.359Z,8.39
2023-01-01T23:14:27.959Z,8.50
2023-01-01T23:17:16.034Z,8.44
2023-01-01T23:20:04.149Z,8.41
2023-01-01T23:22:56.026Z,8.37
2023-01-01T23:25:45.441Z,8.35
2023-01-01T23:28:34.798Z,8.31
2023-01-01T23:31:25.545Z,8.34
2023-01-01T23:34:14.338Z,8.28
2023-01-01T23:37:02.095Z,8.30
2023-01-01T23:39:50.071Z,8.36
2023-01-01T23:42:46.382Z,8.30
2023-01-01T23:45:35.497Z,8.36
2023-01-01T23:48:24.106Z,8.51
2023-01-01T23:51:12.475Z,8.51
2023-01-01T23:54:00.295Z,8.52
2023-01-01T23:56:50.797Z,8.49
2023-01-01T23:59:46.599Z,8.38
